Time;durP1;ratioP1;P1;durP2;ratioP2;P2;SDS_P1;SDS_P2;PMS_P1;PMS_P2;Temp;Humidity;BMP_temperature;BMP_pressure;BME280_temperature;BME280_humidity;BME280_pressure;Samples;Min_cycle;Max_cycle;Signal;HPM_P1;HPM_P2
2023/05/15 04:22:32;;;;;;;8.45;4.60;;;;;;;10.80;100.00;99884.94;5069346;28;20176;-69
2023/05/15 04:24:57;;;;;;;10.57;6.07;;;;;;;10.82;100.00;99885.59;5069320;28;20102;-69
2023/05/15 04:27:22;;;;;;;12.50;6.68;;;;;;;10.86;100.00;99880.72;5068913;28;20043;-68
2023/05/15 04:29:48;;;;;;;14.50;7.55;;;;;;;10.91;100.00;99881.00;5069230;28;20112;-70
2023/05/15 04:32:13;;;;;;;8.18;5.05;;;;;;;10.95;100.00;99884.09;5069116;28;20443;-69
2023/05/15 04:34:39;;;;;;;7.82;4.63;;;;;;;10.98;100.00;99881.09;5069066;28;20090;-68
2023/05/15 04:37:05;;;;;;;11.80;6.07;;;;;;;11.03;100.00;99879.50;5068706;28;20045;-65
2023/05/15 04:39:31;;;;;;;8.43;4.60;;;;;;;11.06;100.00;99875.63;5069042;28;20033;-69
2023/05/15 04:41:56;;;;;;;9.02;5.43;;;;;;;11.03;100.00;99884.84;5068943;28;20102;-68
2023/05/15 04:44:22;;;;;;;8.48;4.50;;;;;;;11.03;100.00;99884.84;5068909;28;20047;-69
2023/05/15 04:46:47;;;;;;;20.77;9.65;;;;;;;11.07;100.00;99880.78;5068734;28;20033;-65
2023/05/15 04:49:12;;;;;;;21.65;10.25;;;;;;;11.14;100.00;99886.19;5067415;28;20036;-69
2023/05/15 04:51:38;;;;;;;13.75;7.05;;;;;;;11.12;100.00;99883.72;5068836;28;20082;-69
2023/05/15 04:54:03;;;;;;;15.55;7.68;;;;;;;11.11;100.00;99878.59;5068809;28;20045;-69
2023/05/15 04:56:29;;;;;;;8.40;4.15;;;;;;;11.08;100.00;99881.59;5068616;28;20044;-67
2023/05/15 04:58:54;;;;;;;7.22;4.65;;;;;;;11.13;100.00;99884.56;5068305;28;20047;-70
2023/05/15 05:01:20;;;;;;;8.70;4.70;;;;;;;11.14;100.00;99880.88;5068510;28;20501;-69
2023/05/15 05:03:45;;;;;;;6.35;3.88;;;;;;;11.12;100.00;99886.38;5068541;28;20403;-68
2023/05/15 05:06:11;;;;;;;7.93;4.53;;;;;;;11.09;100.00;99880.63;5068511;28;20040;-69
2023/05/15 05:08:36;;;;;;;8.52;4.82;;;;;;;11.09;100.00;99881.44;5068138;28;20048;-69
2023/05/15 05:11:02;;;;;;;9.55;5.60;;;;;;;11.14;100.00;99879.03;5068448;28;20037;-69
2023/05/15 05:13:27;;;;;;;8.63;5.68;;;;;;;11.18;100.00;99876.81;5068395;28;20037;-67
2023/05/15 05:15:53;;;;;;;8.93;5.32;;;;;;;11.16;100.00;99881.53;5068219;28;20532;-69
2023/05/15 05:18:18;;;;;;;7.93;4.75;;;;;;;11.19;100.00;99885.66;5067885;28;20070;-67
2023/05/15 05:20:43;;;;;;;7.60;4.43;;;;;;;11.28;100.00;99887.19;5073687;28;20051;-66
2023/05/15 05:23:09;;;;;;;8.05;5.03;;;;;;;11.35;100.00;99888.13;5070310;28;20109;-68
2023/05/15 05:25:34;;;;;;;8.05;4.65;;;;;;;11.38;100.00;99882.41;5088342;28;20400;-67
2023/05/15 05:28:00;;;;;;;8.00;4.30;;;;;;;11.42;100.00;99886.38;5088080;28;20044;-66
2023/05/15 05:30:25;;;;;;;8.73;5.20;;;;;;;11.45;100.00;99896.63;5088218;28;20028;-68
2023/05/15 05:32:51;;;;;;;8.48;4.40;;;;;;;11.41;100.00;99887.38;5080525;28;20064;-68
2023/05/15 05:35:16;;;;;;;10.55;4.47;;;;;;;11.52;100.00;99894.88;5074574;28;20043;-68
2023/05/15 05:37:42;;;;;;;8.98;5.03;;;;;;;11.58;100.00;99887.97;5056596;28;20058;-67
2023/05/15 05:40:08;;;;;;;10.02;4.78;;;;;;;11.62;100.00;99889.25;5074601;28;20032;-68
2023/05/15 05:42:33;;;;;;;7.00;4.45;;;;;;;11.74;100.00;99893.09;5074614;28;20401;-68
2023/05/15 05:44:59;;;;;;;8.93;4.43;;;;;;;11.79;100.00;99901.31;5074412;28;20044;-68
2023/05/15 05:47:24;;;;;;;8.23;4.28;;;;;;;11.86;100.00;99901.41;5073954;28;20044;-67
2023/05/15 05:49:49;;;;;;;6.72;4.13;;;;;;;11.91;100.00;99894.50;5074450;28;20067;-53
2023/05/15 05:52:15;;;;;;;6.97;3.97;;;;;;;12.04;100.00;99903.66;5074330;28;20037;-55
2023/05/15 05:54:41;;;;;;;6.35;4.20;;;;;;;12.17;100.00;99901.94;5074265;28;20043;-53
2023/05/15 05:57:08;;;;;;;8.00;4.43;;;;;;;12.33;100.00;99898.19;5073849;28;20032;-66
2023/05/15 05:59:34;;;;;;;6.53;4.30;;;;;;;12.49;100.00;99899.72;5074187;28;20040;-67
2023/05/15 06:01:59;;;;;;;9.13;4.90;;;;;;;12.71;100.00;99908.50;5074107;28;20040;-67
2023/05/15 06:04:25;;;;;;;8.65;4.65;;;;;;;12.82;100.00;99912.50;5074080;28;20037;-66
2023/05/15 06:06:51;;;;;;;7.15;4.07;;;;;;;12.87;100.00;99904.72;5073872;28;20513;-68
2023/05/15 06:09:16;;;;;;;5.80;4.13;;;;;;;12.95;100.00;99902.72;5073907;28;20043;-68
2023/05/15 06:11:42;;;;;;;7.80;4.65;;;;;;;13.14;100.00;99908.38;5056218;28;20123;-68
2023/05/15 06:14:08;;;;;;;6.28;3.75;;;;;;;13.25;100.00;99900.66;5073923;28;20040;-68
2023/05/15 06:16:34;;;;;;;5.45;3.60;;;;;;;13.38;100.00;99902.56;5073767;28;20041;-67
2023/05/15 06:18:59;;;;;;;6.15;3.85;;;;;;;13.49;100.00;99903.81;5073553;28;20077;-67
2023/05/15 06:21:25;;;;;;;5.63;3.58;;;;;;;13.54;100.00;99909.41;5073754;28;20040;-68
2023/05/15 06:23:50;;;;;;;9.50;4.60;;;;;;;13.61;100.00;99904.06;5073791;28;20040;-68
2023/05/15 06:26:16;;;;;;;5.28;3.58;;;;;;;13.62;100.00;99903.88;5073803;28;20040;-68
2023/05/15 06:28:41;;;;;;;6.05;3.75;;;;;;;13.64;100.00;99895.66;5073328;28;20033;-68
2023/05/15 06:31:06;;;;;;;4.85;3.55;;;;;;;13.64;100.00;99904.50;5073614;28;20041;-67
2023/05/15 06:33:32;;;;;;;6.10;3.30;;;;;;;13.61;100.00;99912.91;5073662;28;20556;-67
2023/05/15 06:35:57;;;;;;;7.63;3.53;;;;;;;13.68;100.00;99903.06;5073544;28;20171;-68
2023/05/15 06:38:22;;;;;;;7.20;4.03;;;;;;;13.68;100.00;99903.06;5073296;28;20073;-68
2023/05/15 06:40:48;;;;;;;6.45;3.47;;;;;;;13.73;100.00;99902.47;5073419;28;20501;-67
2023/05/15 06:43:13;;;;;;;4.22;2.88;;;;;;;13.77;100.00;99901.03;5055533;28;20044;-69
2023/05/15 06:45:38;;;;;;;6.95;3.83;;;;;;;13.80;100.00;99898.78;5072252;28;20378;-68
2023/05/15 06:48:04;;;;;;;5.93;3.33;;;;;;;13.91;100.00;99908.06;5072931;28;20089;-67
2023/05/15 06:50:29;;;;;;;6.13;3.40;;;;;;;13.99;99.36;99899.00;5073169;28;20041;-68
2023/05/15 06:52:55;;;;;;;7.40;4.32;;;;;;;14.03;99.45;99902.94;5073156;28;20132;-68
2023/05/15 06:55:20;;;;;;;5.68;3.33;;;;;;;14.04;97.81;99900.06;5072967;28;20071;-67
2023/05/15 06:57:46;;;;;;;4.40;3.20;;;;;;;14.09;97.70;99904.81;5054699;28;20083;-68
2023/05/15 07:00:12;;;;;;;5.13;3.08;;;;;;;14.13;98.26;99898.81;5055130;28;20041;-67
2023/05/15 07:02:37;;;;;;;4.97;3.13;;;;;;;14.22;98.09;99895.97;5073219;28;20025;-68
2023/05/15 07:05:02;;;;;;;4.72;3.10;;;;;;;14.23;97.72;99894.94;5072967;28;20113;-67
2023/05/15 07:07:28;;;;;;;5.53;2.97;;;;;;;14.17;97.21;99896.56;5072568;28;20090;-68
2023/05/15 07:09:53;;;;;;;4.90;3.10;;;;;;;14.25;96.97;99888.31;5072766;28;20040;-68
2023/05/15 07:12:18;;;;;;;4.38;3.10;;;;;;;14.33;96.71;99896.16;5072670;28;20112;-67
2023/05/15 07:14:44;;;;;;;3.63;2.60;;;;;;;14.41;96.45;99897.81;5054840;28;20032;-69
2023/05/15 07:17:09;;;;;;;4.20;2.85;;;;;;;14.49;96.32;99894.97;5072277;28;20040;-68
2023/05/15 07:19:35;;;;;;;5.20;2.75;;;;;;;14.56;96.26;99900.31;5072628;28;20043;-67
2023/05/15 07:22:00;;;;;;;4.43;3.00;;;;;;;14.62;95.42;99899.50;5072591;28;20060;-67
2023/05/15 07:24:26;;;;;;;3.58;2.67;;;;;;;14.70;95.39;99899.25;5072527;28;20040;-66
2023/05/15 07:26:51;;;;;;;4.18;2.92;;;;;;;14.85;96.70;99902.53;5072302;28;20043;-65
2023/05/15 07:29:16;;;;;;;3.95;2.63;;;;;;;14.98;96.66;99904.38;5054426;28;20033;-67
2023/05/15 07:31:43;;;;;;;4.55;2.97;;;;;;;15.16;95.55;99904.53;5072385;28;20401;-67
2023/05/15 07:34:10;;;;;;;4.47;3.13;;;;;;;15.26;88.93;99898.72;5072560;28;20042;-67
2023/05/15 07:36:35;;;;;;;3.80;2.77;;;;;;;15.25;87.47;99904.28;5072272;28;20024;-66
2023/05/15 07:39:01;;;;;;;4.82;3.15;;;;;;;15.38;88.58;99910.41;5072081;28;20425;-67
2023/05/15 07:41:26;;;;;;;5.20;3.17;;;;;;;15.38;87.58;99913.09;5054406;28;20142;-67
2023/05/15 07:43:51;;;;;;;4.03;2.88;;;;;;;15.39;87.97;99908.59;5072164;28;20048;-67
2023/05/15 07:46:17;;;;;;;3.58;2.53;;;;;;;15.47;88.54;99913.72;5072175;28;20033;-67
2023/05/15 07:48:42;;;;;;;6.00;2.65;;;;;;;15.54;87.85;99908.31;5071924;28;20083;-66
2023/05/15 07:51:08;;;;;;;5.05;2.78;;;;;;;15.72;88.03;99903.09;5072167;28;20039;-66
2023/05/15 07:53:33;;;;;;;4.35;2.83;;;;;;;15.71;86.38;99896.91;5072265;28;20630;-67
2023/05/15 07:55:58;;;;;;;2.90;2.22;;;;;;;15.94;87.52;99892.84;5053824;28;20041;-66
2023/05/15 07:58:24;;;;;;;5.28;3.00;;;;;;;16.03;88.10;99896.88;5071787;28;20036;-66
2023/05/15 08:00:50;;;;;;;4.10;2.50;;;;;;;16.13;87.46;99888.38;5072111;28;20400;-67
2023/05/15 08:03:15;;;;;;;4.35;2.70;;;;;;;16.24;88.13;99888.50;5072050;28;20049;-68
2023/05/15 08:05:41;;;;;;;5.10;2.60;;;;;;;16.36;88.13;99879.69;5072196;28;20043;-67
2023/05/15 08:08:06;;;;;;;3.58;2.38;;;;;;;16.40;84.79;99887.09;5071444;28;20107;-67
2023/05/15 08:10:31;;;;;;;5.05;2.40;;;;;;;16.45;84.73;99887.28;5071764;28;20535;-68
2023/05/15 08:12:57;;;;;;;5.78;2.95;;;;;;;16.59;81.97;99881.78;5072066;28;20067;-68
2023/05/15 08:15:23;;;;;;;2.45;2.13;;;;;;;16.65;80.57;99881.72;5071820;28;20404;-67
2023/05/15 08:17:48;;;;;;;3.65;2.40;;;;;;;16.71;82.52;99874.66;5071528;28;20071;-68
2023/05/15 08:20:13;;;;;;;3.70;2.30;;;;;;;16.72;79.67;99884.38;5071636;28;20036;-68
2023/05/15 08:22:39;;;;;;;3.55;2.35;;;;;;;16.65;79.69;99879.03;5071914;28;20041;-68
2023/05/15 08:25:05;;;;;;;2.78;2.17;;;;;;;16.68;79.20;99880.44;5053912;28;20036;-67
2023/05/15 08:27:31;;;;;;;3.25;2.20;;;;;;;16.96;81.37;99874.63;5071429;28;20490;-68
2023/05/15 08:29:56;;;;;;;4.32;2.25;;;;;;;17.00;74.90;99873.09;5071767;28;20024;-68
2023/05/15 08:32:22;;;;;;;3.00;2.13;;;;;;;17.17;75.40;99871.47;5071686;28;20029;-68
2023/05/15 08:34:47;;;;;;;3.13;2.25;;;;;;;17.35;76.91;99862.56;5053589;28;20443;-67
2023/05/15 08:37:13;;;;;;;3.53;2.10;;;;;;;17.46;74.31;99869.84;5071853;28;20102;-67
2023/05/15 08:39:38;;;;;;;2.90;2.30;;;;;;;17.70;72.48;99859.19;5071748;28;20233;-67
2023/05/15 08:42:14;;;;;;;3.13;2.08;;;;;;;17.95;72.19;99867.97;5071471;28;20040;-67
2023/05/15 08:44:40;;;;;;;2.10;1.73;;;;;;;18.10;70.25;99870.22;5071570;28;20036;-66
2023/05/15 08:47:05;;;;;;;4.20;1.90;;;;;;;18.12;70.16;99871.63;5071224;28;20040;-66
2023/05/15 08:49:40;;;;;;;4.15;2.35;;;;;;;18.37;71.68;99873.31;5071457;28;20117;-67
2023/05/15 08:52:06;;;;;;;2.17;1.63;;;;;;;18.37;66.02;99865.22;5071938;28;20037;-65
2023/05/15 08:54:32;;;;;;;2.53;1.80;;;;;;;18.33;64.79;99856.78;5071496;28;20117;-67
2023/05/15 08:56:59;;;;;;;2.08;1.50;;;;;;;18.27;66.56;99870.38;5071053;28;20040;-67
2023/05/15 08:59:24;;;;;;;3.10;1.85;;;;;;;18.31;67.16;99866.13;5071471;28;20040;-67
2023/05/15 09:01:50;;;;;;;2.88;1.88;;;;;;;18.41;64.54;99858.31;5071431;28;20405;-65
2023/05/15 09:04:15;;;;;;;3.25;1.65;;;;;;;18.56;62.88;99869.44;5071433;28;20037;-67
2023/05/15 09:06:43;;;;;;;1.85;1.40;;;;;;;18.75;64.18;99861.25;5071145;28;20137;-67
2023/05/15 09:09:12;;;;;;;2.75;1.70;;;;;;;18.93;64.21;99861.13;5074352;28;20036;-66
2023/05/15 09:11:42;;;;;;;3.30;1.83;;;;;;;19.06;63.04;99857.34;5074897;28;20045;-67
2023/05/15 09:14:08;;;;;;;1.90;1.75;;;;;;;19.22;62.27;99860.13;5075071;28;20056;-67
2023/05/15 09:16:33;;;;;;;2.70;1.85;;;;;;;19.51;62.08;99850.16;5074884;28;20449;-67
2023/05/15 09:18:59;;;;;;;3.25;1.90;;;;;;;19.50;59.92;99853.94;5074619;28;20043;-67
2023/05/15 09:21:27;;;;;;;3.05;1.85;;;;;;;19.64;59.01;99859.06;5074744;28;20115;-67
2023/05/15 09:24:15;;;;;;;2.75;2.00;;;;;;;19.77;61.88;99850.66;5074727;28;20044;-67
2023/05/15 09:26:42;;;;;;;2.20;1.50;;;;;;;19.91;56.28;99845.78;5074850;28;20074;-65
2023/05/15 09:29:07;;;;;;;2.38;1.77;;;;;;;20.02;58.54;99843.00;5074856;28;20036;-66
2023/05/15 09:31:33;;;;;;;1.85;1.50;;;;;;;20.22;58.58;99847.94;5074575;28;20052;-66
2023/05/15 09:34:08;;;;;;;1.60;1.50;;;;;;;20.52;57.98;99839.47;5074496;28;20039;-66
2023/05/15 09:36:33;;;;;;;2.15;1.67;;;;;;;20.62;55.05;99828.00;5074618;28;20036;-66
2023/05/15 09:39:00;;;;;;;2.17;1.98;;;;;;;20.68;56.15;99835.13;5055965;28;20108;-65
2023/05/15 09:41:27;;;;;;;2.03;1.30;;;;;;;20.88;51.34;99831.88;5074475;28;20493;-58
2023/05/15 09:43:55;;;;;;;2.87;1.80;;;;;;;21.00;51.19;99829.06;5074250;28;20025;-56
2023/05/15 09:46:21;;;;;;;3.08;1.40;;;;;;;21.32;50.27;99832.72;5074333;28;20079;-57
2023/05/15 09:48:47;;;;;;;2.73;1.57;;;;;;;21.38;48.21;99828.16;5088925;28;20083;-58
2023/05/15 09:51:18;;;;;;;1.85;1.65;;;;;;;21.47;46.68;99828.53;5094656;28;20448;-56
2023/05/15 09:53:48;;;;;;;2.53;1.77;;;;;;;21.33;54.40;99820.81;5094513;28;20059;-57
2023/05/15 09:56:14;;;;;;;2.67;1.48;;;;;;;21.61;52.79;99819.75;5094361;28;20549;-57
2023/05/15 09:58:55;;;;;;;2.08;1.50;;;;;;;21.85;51.40;99814.00;5094173;28;20059;-56
2023/05/15 10:01:22;;;;;;;3.53;1.80;;;;;;;21.70;47.54;99811.94;5094535;28;20553;-55
2023/05/15 10:04:01;;;;;;;2.03;1.45;;;;;;;21.96;48.12;99813.00;5094394;28;20081;-56
2023/05/15 10:06:34;;;;;;;4.22;1.52;;;;;;;22.59;52.20;99808.59;5094206;28;20044;-57
2023/05/15 10:09:01;;;;;;;2.00;1.50;;;;;;;22.91;47.23;99805.81;5093921;28;20133;-60
2023/05/15 10:11:27;;;;;;;1.73;1.45;;;;;;;23.39;46.92;99806.50;5094070;28;20036;-60
2023/05/15 10:13:53;;;;;;;3.05;1.65;;;;;;;23.48;46.43;99798.66;5094188;28;20036;-58
2023/05/15 10:16:21;;;;;;;3.65;1.50;;;;;;;23.89;46.48;99794.13;5094070;28;20401;-58
2023/05/15 10:18:46;;;;;;;;;;;;;;;24.03;47.72;99795.19;5094035;28;20397;-58
2023/05/15 10:21:14;;;;;;;4.40;1.60;;;;;;;24.29;41.89;99795.97;5093839;28;19918;-56
2023/05/15 10:23:41;;;;;;;1.92;1.42;;;;;;;24.50;43.63;99794.06;5093659;28;20040;-59
2023/05/15 10:26:11;;;;;;;2.25;1.90;;;;;;;24.23;40.04;99779.94;5093570;28;20058;-56
2023/05/15 10:28:38;;;;;;;3.53;2.08;;;;;;;24.57;43.08;99786.41;5082145;28;20513;-58
2023/05/15 10:31:04;;;;;;;2.65;1.60;;;;;;;24.68;41.89;99783.69;5073536;28;20032;-55
2023/05/15 10:33:34;;;;;;;3.08;1.50;;;;;;;25.21;40.43;99786.75;5073123;28;20071;-56
2023/05/15 10:36:02;;;;;;;3.25;1.65;;;;;;;25.54;40.78;99791.44;5061693;28;20116;-56
2023/05/15 10:38:28;;;;;;;1.90;1.50;;;;;;;25.53;43.05;99789.00;5062790;28;20595;-57
2023/05/15 10:40:56;;;;;;;1.75;1.48;;;;;;;25.60;41.41;99779.41;5061827;28;20508;-57
2023/05/15 10:43:22;;;;;;;2.42;1.50;;;;;;;25.43;43.39;99773.56;5064019;28;20052;-59
2023/05/15 10:45:49;;;;;;;3.90;1.70;;;;;;;25.88;38.53;99763.41;5061314;28;20143;-59
2023/05/15 10:48:15;;;;;;;2.28;1.65;;;;;;;25.09;38.36;99757.91;5053079;28;20047;-55
2023/05/15 10:50:40;;;;;;;3.03;1.42;;;;;;;25.59;39.32;99749.72;5053197;28;20040;-57
2023/05/15 10:53:07;;;;;;;2.17;1.75;;;;;;;26.00;39.40;99755.66;5053096;28;20179;-58
2023/05/15 10:55:34;;;;;;;2.13;1.50;;;;;;;26.00;38.36;99744.75;5053193;28;20462;-59
2023/05/15 10:58:00;;;;;;;2.47;1.65;;;;;;;26.01;38.00;99746.38;5052828;28;20513;-57
2023/05/15 11:00:27;;;;;;;2.15;1.50;;;;;;;26.22;39.52;99736.91;5053031;28;20045;-59
2023/05/15 11:02:55;;;;;;;;;;;;;;;26.03;37.87;99743.38;5053485;28;20029;-57
2023/05/15 11:05:21;;;;;;;1.63;1.48;;;;;;;25.23;38.55;99736.31;5052941;28;19912;-56
2023/05/15 11:08:16;;;;;;;1.42;1.23;;;;;;;24.52;39.96;99745.63;5052506;28;20037;-58
2023/05/15 11:10:42;;;;;;;1.17;0.90;;;;;;;23.48;41.05;99738.88;5061915;28;20033;-59
2023/05/15 11:13:07;;;;;;;0.60;0.60;;;;;;;22.46;42.34;99749.38;5062402;28;20024;-60
2023/05/15 11:15:44;;;;;;;1.75;0.88;;;;;;;21.84;43.09;99758.97;5063571;28;20044;-58
2023/05/15 11:18:10;;;;;;;0.80;0.70;;;;;;;21.41;43.75;99759.94;5062747;28;20041;-68
2023/05/15 11:20:40;;;;;;;0.65;0.65;;;;;;;20.99;44.97;99762.41;5061186;28;20040;-67
2023/05/15 11:23:06;;;;;;;0.77;0.57;;;;;;;20.79;46.03;99757.56;5062583;28;20033;-67
2023/05/15 11:25:33;;;;;;;0.95;0.85;;;;;;;20.52;49.38;99760.22;5063025;28;20454;-67
2023/05/15 11:27:58;;;;;;;0.90;0.70;;;;;;;20.36;47.96;99758.34;5060742;28;20036;-67
2023/05/15 11:30:38;;;;;;;0.63;0.63;;;;;;;21.16;49.54;99754.22;5061967;28;20033;-67
2023/05/15 11:33:09;;;;;;;0.70;0.60;;;;;;;21.46;50.82;99749.16;5061964;28;20063;-69
2023/05/15 11:35:42;;;;;;;0.88;0.57;;;;;;;21.49;46.87;99759.47;5061181;28;20049;-69
2023/05/15 11:38:15;;;;;;;0.60;0.60;;;;;;;21.18;46.32;99771.84;5061894;28;20028;-68
2023/05/15 11:40:47;;;;;;;0.70;0.70;;;;;;;20.67;47.17;99773.97;5045999;28;20032;-68
2023/05/15 11:43:24;;;;;;;0.95;0.70;;;;;;;20.28;48.66;99781.22;5044832;28;20064;-69
2023/05/15 11:45:54;;;;;;;1.00;0.77;;;;;;;19.94;49.55;99785.81;5062576;28;20031;-69
2023/05/15 11:48:22;;;;;;;1.02;0.93;;;;;;;19.60;51.35;99783.09;5060752;28;20068;-69
2023/05/15 11:50:48;;;;;;;0.75;0.63;;;;;;;19.41;52.96;99787.03;5061680;28;20041;-70
2023/05/15 11:53:15;;;;;;;1.05;0.70;;;;;;;19.36;54.64;99792.31;5062829;28;20123;-68
2023/05/15 11:55:43;;;;;;;1.00;0.80;;;;;;;19.24;54.09;99793.22;5057301;28;20043;-68
2023/05/15 11:58:16;;;;;;;2.60;1.10;;;;;;;19.18;57.24;99802.28;5056098;28;20496;-68
2023/05/15 12:00:44;;;;;;;0.82;0.73;;;;;;;18.97;56.46;99792.09;5061078;28;20021;-69
2023/05/15 12:03:23;;;;;;;1.75;1.02;;;;;;;18.71;55.05;99796.16;5061508;28;20036;-69
2023/05/15 12:05:48;;;;;;;1.65;1.20;;;;;;;18.45;56.44;99797.44;5061556;28;20100;-69
2023/05/15 12:08:14;;;;;;;1.15;0.98;;;;;;;18.30;59.52;99787.13;5060330;28;20460;-69
2023/05/15 12:10:43;;;;;;;1.60;1.20;;;;;;;18.07;67.47;99781.75;5062429;28;21975;-69
2023/05/15 12:13:13;;;;;;;0.93;0.82;;;;;;;17.84;62.64;99774.44;5061622;28;20040;-68
2023/05/15 12:15:41;;;;;;;1.20;1.10;;;;;;;17.76;68.85;99767.53;5060305;28;20021;-68
2023/05/15 12:18:07;;;;;;;2.55;1.42;;;;;;;17.35;70.68;99760.28;5061522;28;20040;-69
2023/05/15 12:20:34;;;;;;;3.33;2.08;;;;;;;17.34;74.50;99754.06;5044176;28;20037;-67
2023/05/15 12:23:02;;;;;;;2.13;1.60;;;;;;;17.47;73.76;99757.59;5060947;28;20486;-69
2023/05/15 12:25:29;;;;;;;1.60;1.30;;;;;;;17.44;73.37;99750.81;5061593;28;20127;-69
2023/05/15 12:27:55;;;;;;;0.93;0.93;;;;;;;17.62;67.01;99750.75;5061991;28;20041;-68
2023/05/15 12:30:21;;;;;;;1.60;1.10;;;;;;;18.26;66.54;99753.63;5060481;28;20099;-68
2023/05/15 12:32:46;;;;;;;0.90;0.85;;;;;;;19.20;64.79;99748.84;5061656;28;20036;-69
2023/05/15 12:35:12;;;;;;;1.52;1.20;;;;;;;20.18;53.45;99733.22;5043871;28;20033;-69
2023/05/15 12:37:38;;;;;;;1.17;1.00;;;;;;;21.25;52.97;99734.53;5059990;28;20033;-68
2023/05/15 12:40:11;;;;;;;1.00;0.90;;;;;;;21.50;51.34;99736.72;5006085;28;20115;-68
2023/05/15 12:42:41;;;;;;;1.10;1.00;;;;;;;21.99;50.56;99738.47;5052721;28;20044;-69
2023/05/15 12:45:15;;;;;;;1.52;1.05;;;;;;;22.03;46.73;99728.72;5055592;28;20037;-69
2023/05/15 12:47:41;;;;;;;1.08;0.82;;;;;;;22.13;45.64;99736.97;5056306;28;20045;-69
2023/05/15 12:50:20;;;;;;;0.80;0.80;;;;;;;23.41;47.15;99738.28;5064728;28;20086;-69
2023/05/15 12:52:49;;;;;;;1.23;0.98;;;;;;;24.17;45.83;99729.34;5065160;28;20025;-68
2023/05/15 12:55:16;;;;;;;1.13;1.02;;;;;;;24.19;43.64;99732.59;5063784;28;20103;-68
2023/05/15 12:57:43;;;;;;;1.58;1.00;;;;;;;24.44;43.85;99731.75;5065064;28;20032;-68
2023/05/15 13:00:10;;;;;;;0.68;0.68;;;;;;;24.95;42.79;99732.34;5065392;28;20037;-67
2023/05/15 13:02:35;;;;;;;0.80;0.80;;;;;;;24.43;42.15;99732.84;5063946;28;20627;-68
2023/05/15 13:05:02;;;;;;;1.48;0.82;;;;;;;24.43;40.67;99738.28;5069843;28;20044;-68
2023/05/15 13:07:28;;;;;;;1.98;1.50;;;;;;;24.46;39.96;99735.84;5074766;28;20047;-69
2023/05/15 13:10:07;;;;;;;0.88;0.82;;;;;;;24.99;42.71;99733.44;5075233;28;20040;-68
2023/05/15 13:12:42;;;;;;;1.10;1.00;;;;;;;24.70;40.21;99727.84;5075049;28;20505;-67
2023/05/15 13:15:22;;;;;;;0.80;0.80;;;;;;;24.72;39.64;99733.84;5074921;28;20085;-69
2023/05/15 13:17:47;;;;;;;1.23;1.00;;;;;;;24.56;40.01;99735.78;5074661;28;20043;-69
2023/05/15 13:20:13;;;;;;;1.92;1.58;;;;;;;24.00;40.37;99713.34;5074695;28;20036;-67
2023/05/15 13:22:38;;;;;;;1.50;0.80;;;;;;;24.18;41.13;99720.09;5074879;28;20033;-69
2023/05/15 13:25:04;;;;;;;0.82;0.80;;;;;;;23.96;41.44;99723.94;5074736;28;20044;-68
2023/05/15 13:27:30;;;;;;;0.93;0.87;;;;;;;23.92;44.28;99717.41;5074433;28;20513;-68
2023/05/15 13:29:55;;;;;;;0.70;0.70;;;;;;;23.88;42.85;99710.91;5074745;28;20111;-67
2023/05/15 13:32:21;;;;;;;0.63;0.60;;;;;;;23.86;47.21;99709.53;5074573;28;20044;-66
2023/05/15 13:34:46;;;;;;;0.93;0.93;;;;;;;22.93;40.59;99708.59;5074676;28;20040;-67
2023/05/15 13:37:12;;;;;;;1.13;0.77;;;;;;;23.05;43.20;99718.41;5074220;28;20055;-67
2023/05/15 13:39:37;;;;;;;0.60;0.60;;;;;;;23.13;46.30;99707.00;5074646;28;20037;-67
2023/05/15 13:42:03;;;;;;;0.52;0.52;;;;;;;23.01;43.05;99715.41;5073798;28;20561;-67
2023/05/15 13:44:28;;;;;;;1.02;0.93;;;;;;;22.78;44.03;99707.72;5074483;28;20417;-67
2023/05/15 13:46:54;;;;;;;0.75;0.55;;;;;;;22.39;47.33;99714.34;5074344;28;20091;-66
2023/05/15 13:49:20;;;;;;;1.58;1.10;;;;;;;22.35;44.32;99715.94;5074306;28;20044;-68
2023/05/15 13:51:45;;;;;;;1.23;1.00;;;;;;;22.13;44.93;99716.09;5074242;28;20492;-66
2023/05/15 13:54:11;;;;;;;1.27;1.00;;;;;;;21.70;43.96;99714.38;5073821;28;20067;-65
2023/05/15 13:56:36;;;;;;;1.17;0.90;;;;;;;21.53;45.42;99727.25;5074093;28;20047;-66
2023/05/15 13:59:01;;;;;;;1.40;1.10;;;;;;;21.43;47.18;99735.28;5073952;28;20044;-64
2023/05/15 14:01:27;;;;;;;1.10;1.00;;;;;;;21.27;47.00;99737.00;5074166;28;20474;-66
2023/05/15 14:03:52;;;;;;;1.15;1.05;;;;;;;20.99;49.25;99741.56;5074200;28;20072;-66
2023/05/15 14:06:18;;;;;;;1.38;0.82;;;;;;;20.81;50.93;99756.28;5074006;28;20044;-66
2023/05/15 14:08:43;;;;;;;1.45;1.15;;;;;;;20.20;55.97;99763.50;5073726;28;20045;-68
2023/05/15 14:11:09;;;;;;;1.63;1.17;;;;;;;20.01;58.26;99767.53;5055977;28;20041;-67
2023/05/15 14:13:34;;;;;;;2.03;1.58;;;;;;;19.14;72.59;99744.41;5074008;28;20037;-52
2023/05/15 14:15:59;;;;;;;1.65;1.27;;;;;;;18.28;74.88;99734.53;5073928;28;20155;-55
2023/05/15 14:18:25;;;;;;;2.42;1.25;;;;;;;17.51;73.04;99721.91;5073646;28;20090;-53
2023/05/15 14:20:51;;;;;;;3.72;1.75;;;;;;;17.01;77.62;99716.81;5073754;28;20409;-53
2023/05/15 14:23:16;;;;;;;1.70;1.42;;;;;;;16.93;78.16;99733.28;5073852;28;20044;-57
2023/05/15 14:25:42;;;;;;;1.83;1.60;;;;;;;16.86;82.55;99727.19;5073693;28;20043;-67
2023/05/15 14:28:07;;;;;;;2.03;1.60;;;;;;;16.78;85.12;99730.19;5073432;28;20115;-68
2023/05/15 14:30:33;;;;;;;2.78;1.80;;;;;;;16.78;89.79;99739.06;5073564;28;20473;-67
2023/05/15 14:32:58;;;;;;;1.77;1.52;;;;;;;16.86;90.12;99731.75;5073696;28;20032;-68
2023/05/15 14:35:23;;;;;;;2.00;1.60;;;;;;;16.67;92.30;99742.47;5055529;28;20543;-68
2023/05/15 14:37:49;;;;;;;3.63;1.77;;;;;;;16.86;91.85;99739.81;5073087;28;20078;-68
2023/05/15 14:40:14;;;;;;;1.60;1.50;;;;;;;16.92;93.07;99737.03;5073348;28;20028;-68
2023/05/15 14:42:40;;;;;;;1.95;1.58;;;;;;;17.06;94.78;99741.19;5073394;28;20126;-68
2023/05/15 14:45:05;;;;;;;2.10;1.73;;;;;;;17.18;93.54;99738.56;5073335;28;20044;-68
2023/05/15 14:47:32;;;;;;;1.90;1.60;;;;;;;17.40;95.98;99741.53;5073023;28;20037;-67
2023/05/15 14:49:57;;;;;;;2.33;2.13;;;;;;;17.48;93.34;99748.50;5073202;28;20036;-68
2023/05/15 14:52:23;;;;;;;2.47;1.73;;;;;;;17.51;92.79;99748.81;5073102;28;20516;-67
2023/05/15 14:54:48;;;;;;;2.28;2.08;;;;;;;17.53;92.13;99754.78;5073054;28;20094;-68
2023/05/15 14:57:19;;;;;;;2.15;1.67;;;;;;;17.61;91.29;99748.28;5072793;28;20091;-67
2023/05/15 14:59:45;;;;;;;1.98;1.70;;;;;;;17.68;91.44;99749.00;5073111;28;20064;-67
2023/05/15 15:02:10;;;;;;;2.42;1.90;;;;;;;17.71;89.26;99753.09;5055413;28;20489;-68
2023/05/15 15:04:36;;;;;;;1.60;1.40;;;;;;;17.59;86.80;99747.66;5072477;28;20040;-68
2023/05/15 15:07:04;;;;;;;2.38;1.63;;;;;;;17.68;83.63;99754.38;5072338;28;20062;-68
2023/05/15 15:09:29;;;;;;;1.63;1.52;;;;;;;17.78;86.88;99749.25;5072766;28;20029;-67
2023/05/15 15:11:55;;;;;;;2.72;1.60;;;;;;;17.88;86.02;99748.69;5072752;28;20036;-68
2023/05/15 15:14:20;;;;;;;1.67;1.52;;;;;;;17.78;86.92;99753.81;5072867;28;20071;-68
2023/05/15 15:16:46;;;;;;;2.28;1.70;;;;;;;17.81;85.84;99753.38;5072592;28;20497;-67
2023/05/15 15:19:12;;;;;;;2.30;1.73;;;;;;;17.79;83.29;99736.59;5076037;28;20089;-68
2023/05/15 15:21:37;;;;;;;1.52;1.42;;;;;;;17.77;81.19;99746.81;5092969;28;20157;-67
2023/05/15 15:24:03;;;;;;;1.83;1.40;;;;;;;17.78;82.81;99743.88;5092862;28;20044;-66
2023/05/15 15:26:28;;;;;;;1.35;1.25;;;;;;;17.76;81.17;99737.91;5092773;28;20040;-65
2023/05/15 15:28:59;;;;;;;1.70;1.30;;;;;;;17.69;81.27;99745.25;5092593;28;20048;-65
2023/05/15 15:31:29;;;;;;;2.35;1.52;;;;;;;17.64;78.73;99728.94;5092659;28;20047;-66
2023/05/15 15:33:55;;;;;;;1.85;1.50;;;;;;;17.67;79.19;99739.28;5092737;28;20040;-65
2023/05/15 15:36:21;;;;;;;1.80;1.60;;;;;;;17.53;80.42;99738.63;5092615;28;20032;-66
2023/05/15 15:38:46;;;;;;;1.70;1.50;;;;;;;17.68;81.62;99735.53;5092300;28;20039;-67
2023/05/15 15:41:13;;;;;;;2.00;1.40;;;;;;;17.53;79.65;99733.25;5092674;28;20118;-67
2023/05/15 15:43:39;;;;;;;1.77;1.48;;;;;;;17.50;77.85;99747.19;5092591;28;20123;-66
2023/05/15 15:46:04;;;;;;;1.80;1.50;;;;;;;17.27;75.86;99739.84;5092480;28;20111;-66
2023/05/15 15:48:30;;;;;;;1.73;1.40;;;;;;;17.36;80.17;99754.66;5092403;28;20035;-66
2023/05/15 15:50:55;;;;;;;1.83;1.55;;;;;;;17.47;78.11;99758.41;5092277;28;20043;-66